Time;durP1;ratioP1;P1;durP2;ratioP2;P2;SDS_P1;SDS_P2;PMS_P1;PMS_P2;Temp;Humidity;BMP_temperature;BMP_pressure;BME280_temperature;BME280_humidity;BME280_pressure;Samples;Min_cycle;Max_cycle;Signal;HPM_P1;HPM_P2
2023/08/01 00:00:11;;;;;;;0.90;0.60;;;;;;;18.41;74.34;99362.97;690326;28;1304;-77
2023/08/01 00:00:32;;;;;;;0.90;0.60;;;;;;;18.44;74.29;99362.03;687644;28;1128;-77
2023/08/01 00:00:53;;;;;;;0.90;0.60;;;;;;;18.40;74.44;99355.06;687579;28;1267;-78
2023/08/01 00:01:14;;;;;;;0.90;0.57;;;;;;;18.41;74.28;99359.44;687255;28;1930;-77
2023/08/01 00:01:35;;;;;;;0.90;0.60;;;;;;;18.46;74.30;99368.13;690395;28;1228;-77
2023/08/01 00:01:55;;;;;;;1.00;0.70;;;;;;;18.38;74.44;99349.81;687707;28;1168;-77
2023/08/01 00:02:16;;;;;;;1.00;0.70;;;;;;;18.41;74.43;99356.81;683317;28;1845;-78
2023/08/01 00:02:38;;;;;;;1.00;0.70;;;;;;;18.50;74.39;99375.03;679438;29;1509;-78
2023/08/01 00:02:59;;;;;;;0.90;0.50;;;;;;;18.39;74.46;99351.59;684931;28;1239;-78
2023/08/01 00:03:19;;;;;;;0.90;0.60;;;;;;;18.45;74.47;99367.22;684597;28;1289;-78
2023/08/01 00:03:40;;;;;;;0.90;0.60;;;;;;;18.44;74.44;99362.03;690304;28;1050;-78
2023/08/01 00:04:01;;;;;;;0.90;0.50;;;;;;;18.40;74.56;99361.22;687750;28;1129;-78
2023/08/01 00:04:21;;;;;;;0.80;0.50;;;;;;;18.43;74.34;99363.78;685003;28;1073;-78
2023/08/01 00:04:42;;;;;;;0.90;0.50;;;;;;;18.45;74.27;99358.47;686901;28;1346;-78
2023/08/01 00:05:03;;;;;;;0.80;0.50;;;;;;;18.50;74.42;99367.09;684882;28;1745;-78
2023/08/01 00:05:24;;;;;;;0.90;0.60;;;;;;;18.45;74.34;99361.94;679715;29;1409;-78
2023/08/01 00:05:45;;;;;;;0.90;0.60;;;;;;;18.43;74.19;99361.13;676097;29;1690;-79
2023/08/01 00:06:05;;;;;;;0.90;0.60;;;;;;;18.38;74.35;99354.25;682440;28;1113;-78
2023/08/01 00:06:26;;;;;;;0.90;0.60;;;;;;;18.38;74.36;99356.91;684818;28;1046;-78
2023/08/01 00:06:47;;;;;;;0.90;0.60;;;;;;;18.45;74.21;99364.59;679628;29;1766;-78
2023/08/01 00:07:07;;;;;;;0.90;0.60;;;;;;;18.41;74.19;99357.69;683490;28;1687;-78
2023/08/01 00:07:28;;;;;;;0.90;0.60;;;;;;;18.41;74.24;99357.69;681941;28;1235;-77
2023/08/01 00:07:49;;;;;;;0.90;0.60;;;;;;;18.39;74.32;99361.25;682287;29;1128;-78
2023/08/01 00:08:13;;;;;;;0.90;0.60;;;;;;;18.36;74.44;99355.16;685488;28;1119;-78
2023/08/01 00:08:34;;;;;;;0.80;0.60;;;;;;;18.28;74.50;99341.31;684379;28;1276;-77
2023/08/01 00:08:55;;;;;;;0.90;0.60;;;;;;;18.32;74.58;99348.22;681429;29;1612;-77
2023/08/01 00:09:15;;;;;;;0.90;0.60;;;;;;;18.35;74.58;99347.28;682264;28;1347;-77
2023/08/01 00:09:36;;;;;;;0.90;0.60;;;;;;;18.33;74.66;99347.31;684693;28;1691;-77
2023/08/01 00:09:57;;;;;;;0.90;0.50;;;;;;;18.33;74.50;99344.66;679678;29;1261;-77
2023/08/01 00:10:17;;;;;;;0.90;0.50;;;;;;;18.40;74.50;99355.06;684654;28;1312;-78
2023/08/01 00:10:38;;;;;;;0.90;0.50;;;;;;;18.41;74.69;99357.69;682295;29;1052;-78
2023/08/01 00:10:59;;;;;;;0.90;0.60;;;;;;;18.40;74.42;99355.94;685682;28;1096;-78
2023/08/01 00:11:19;;;;;;;0.90;0.60;;;;;;;18.33;74.63;99339.38;685283;28;1085;-78
2023/08/01 00:11:40;;;;;;;0.90;0.60;;;;;;;18.36;74.55;99338.44;682243;29;990;-77
2023/08/01 00:12:01;;;;;;;0.90;0.60;;;;;;;18.38;74.46;99338.41;687781;28;997;-77
2023/08/01 00:12:24;;;;;;;0.90;0.60;;;;;;;18.34;74.51;99330.56;687538;28;1408;-77
2023/08/01 00:12:45;;;;;;;0.90;0.57;;;;;;;18.40;74.51;99342.75;684879;28;1122;-77
2023/08/01 00:13:05;;;;;;;0.80;0.50;;;;;;;18.36;74.72;99327.88;685037;28;1014;-77
2023/08/01 00:13:26;;;;;;;0.90;0.50;;;;;;;18.41;74.56;99330.38;679444;29;1375;-78
2023/08/01 00:13:47;;;;;;;0.90;0.55;;;;;;;18.44;74.67;99335.59;684691;28;1191;-77
2023/08/01 00:14:07;;;;;;;0.90;0.60;;;;;;;18.41;74.66;99333.03;682396;28;1119;-77
2023/08/01 00:14:28;;;;;;;0.90;0.60;;;;;;;18.36;74.54;99328.75;680389;28;1653;-77
2023/08/01 00:14:48;;;;;;;0.90;0.60;;;;;;;18.34;74.62;99314.72;681247;28;1136;-77
2023/08/01 00:15:09;;;;;;;0.90;0.60;;;;;;;18.41;74.43;99319.81;676676;29;1051;-77
2023/08/01 00:15:30;;;;;;;0.88;0.60;;;;;;;18.50;74.61;99338.94;681592;29;1687;-77
2023/08/01 00:15:51;;;;;;;0.80;0.60;;;;;;;18.44;74.57;99330.31;684524;28;1093;-77
2023/08/01 00:16:11;;;;;;;0.90;0.60;;;;;;;18.42;74.45;99322.44;685054;28;1257;-77
2023/08/01 00:16:32;;;;;;;0.90;0.50;;;;;;;18.42;74.53;99326.84;685028;28;1032;-77
2023/08/01 00:16:54;;;;;;;0.90;0.50;;;;;;;18.37;74.42;99319.03;685389;28;1058;-77
2023/08/01 00:17:14;;;;;;;0.90;0.50;;;;;;;18.46;74.39;99331.13;687280;28;1115;-77
2023/08/01 00:17:35;;;;;;;0.90;0.50;;;;;;;18.42;74.35;99326.84;680941;29;1165;-77
2023/08/01 00:17:56;;;;;;;0.90;0.50;;;;;;;18.52;74.29;99344.19;682475;29;937;-77
2023/08/01 00:18:16;;;;;;;0.90;0.50;;;;;;;18.53;74.29;99345.91;680501;28;1123;-76
2023/08/01 00:18:37;;;;;;;0.90;0.60;;;;;;;18.49;74.27;99349.53;686510;28;1293;-76
2023/08/01 00:18:57;;;;;;;0.90;0.60;;;;;;;18.46;74.17;99342.59;682317;29;1013;-76
2023/08/01 00:19:18;;;;;;;0.90;0.68;;;;;;;18.50;74.20;99340.69;683779;28;1169;-77
2023/08/01 00:19:39;;;;;;;0.90;0.60;;;;;;;18.44;74.19;99331.16;684817;28;1208;-77
2023/08/01 00:20:00;;;;;;;0.90;0.60;;;;;;;18.42;74.31;99326.84;684986;28;1175;-77
2023/08/01 00:20:20;;;;;;;0.80;0.60;;;;;;;18.43;74.19;99328.59;683141;28;1060;-77
2023/08/01 00:20:41;;;;;;;0.80;0.50;;;;;;;18.40;74.26;99312.81;682264;29;1272;-78
2023/08/01 00:21:02;;;;;;;0.90;0.50;;;;;;;18.47;74.48;99327.59;687298;28;1742;-78
2023/08/01 00:21:23;;;;;;;0.90;0.50;;;;;;;18.43;74.33;99318.88;676750;28;1974;-77
2023/08/01 00:21:44;;;;;;;0.80;0.52;;;;;;;18.47;74.32;99331.09;676944;29;1117;-77
2023/08/01 00:22:05;;;;;;;0.90;0.60;;;;;;;18.45;74.39;99324.13;679549;29;1150;-77
2023/08/01 00:22:25;;;;;;;0.90;0.60;;;;;;;18.44;74.44;99325.03;684360;28;1290;-77
2023/08/01 00:22:46;;;;;;;0.90;0.60;;;;;;;18.45;74.34;99332.91;684658;28;2029;-77
2023/08/01 00:23:07;;;;;;;0.90;0.60;;;;;;;18.51;74.21;99339.81;684915;28;1504;-77
2023/08/01 00:23:27;;;;;;;0.90;0.60;;;;;;;18.50;74.38;99330.13;686207;28;1182;-77
2023/08/01 00:23:48;;;;;;;0.90;0.60;;;;;;;18.55;74.53;99341.44;679930;28;1237;-76
2023/08/01 00:24:09;;;;;;;0.90;0.60;;;;;;;18.55;74.38;99341.44;682193;28;1454;-77
2023/08/01 00:24:29;;;;;;;0.90;0.60;;;;;;;18.48;74.24;99331.97;680017;28;1297;-77
2023/08/01 00:24:50;;;;;;;0.90;0.60;;;;;;;18.46;74.15;99328.50;684530;28;1169;-75
2023/08/01 00:25:11;;;;;;;0.80;0.60;;;;;;;18.42;74.41;99326.84;685488;28;1418;-76
2023/08/01 00:25:31;;;;;;;0.80;0.60;;;;;;;18.49;74.32;99339.84;684907;28;997;-76
2023/08/01 00:25:52;;;;;;;0.80;0.60;;;;;;;18.43;74.49;99325.97;684825;28;1052;-76
2023/08/01 00:26:13;;;;;;;0.80;0.50;;;;;;;18.40;74.39;99323.38;679498;29;1897;-76
2023/08/01 00:26:34;;;;;;;0.90;0.60;;;;;;;18.45;74.32;99332.91;682260;28;1939;-75
2023/08/01 00:26:55;;;;;;;0.90;0.60;;;;;;;18.44;74.31;99332.97;688945;28;1059;-75
2023/08/01 00:27:16;;;;;;;0.90;0.60;;;;;;;18.43;74.16;99323.31;690192;28;1223;-77
2023/08/01 00:27:37;;;;;;;0.90;0.60;;;;;;;18.40;74.33;99323.38;687617;28;1028;-75
2023/08/01 00:27:57;;;;;;;0.90;0.60;;;;;;;18.43;74.39;99321.53;687826;28;1020;-77
2023/08/01 00:28:18;;;;;;;0.90;0.60;;;;;;;18.38;74.24;99315.50;686965;28;1092;-76
2023/08/01 00:28:39;;;;;;;0.90;0.60;;;;;;;18.35;74.46;99316.47;684140;28;1647;-77
2023/08/01 00:29:00;;;;;;;0.90;0.60;;;;;;;18.36;74.47;99320.84;680088;29;1038;-76
2023/08/01 00:29:21;;;;;;;0.90;0.60;;;;;;;18.42;74.54;99332.13;685296;28;1166;-76
2023/08/01 00:29:41;;;;;;;0.90;0.60;;;;;;;18.37;74.42;99324.31;683843;28;1961;-76
2023/08/01 00:30:02;;;;;;;0.90;0.60;;;;;;;18.35;74.50;99321.75;687238;28;1130;-76
2023/08/01 00:30:23;;;;;;;0.90;0.60;;;;;;;18.43;74.43;99328.59;680385;29;1123;-76
2023/08/01 00:30:44;;;;;;;0.90;0.50;;;;;;;18.35;74.54;99327.03;684935;28;1319;-76
2023/08/01 00:31:11;;;;;;;0.90;0.50;;;;;;;18.31;74.57;99325.38;685013;28;1046;-76
2023/08/01 00:31:31;;;;;;;0.90;0.50;;;;;;;18.34;74.61;99313.88;686202;28;1182;-76
2023/08/01 00:31:52;;;;;;;0.90;0.50;;;;;;;18.31;74.64;99311.31;685041;28;1214;-76
2023/08/01 00:32:13;;;;;;;0.90;0.50;;;;;;;18.36;74.47;99312.91;685434;28;1139;-75
2023/08/01 00:32:34;;;;;;;0.90;0.60;;;;;;;18.43;74.61;99318.88;682144;28;1865;-76
2023/08/01 00:32:55;;;;;;;0.90;0.50;;;;;;;18.44;74.34;99317.13;683292;28;1796;-75
2023/08/01 00:33:16;;;;;;;0.80;0.50;;;;;;;18.44;74.43;99310.03;683917;28;1187;-77
2023/08/01 00:33:37;;;;;;;0.80;0.50;;;;;;;18.45;74.27;99309.13;684902;28;1083;-78
2023/08/01 00:33:58;;;;;;;0.80;0.50;;;;;;;18.41;74.30;99298.69;684732;28;1517;-78
2023/08/01 00:34:18;;;;;;;0.80;0.50;;;;;;;18.43;74.22;99296.91;688106;28;1312;-78
2023/08/01 00:34:39;;;;;;;0.80;0.50;;;;;;;18.46;74.22;99292.41;690038;28;1281;-79
2023/08/01 00:35:00;;;;;;;0.90;0.60;;;;;;;18.43;74.16;99295.13;684944;28;1387;-79
2023/08/01 00:35:21;;;;;;;0.90;0.60;;;;;;;18.51;74.31;99294.91;686252;28;1176;-80
2023/08/01 00:35:41;;;;;;;0.90;0.68;;;;;;;18.48;74.17;99289.69;684444;28;1228;-80
2023/08/01 00:36:02;;;;;;;0.90;0.68;;;;;;;18.50;74.27;99299.31;679684;28;1287;-79
2023/08/01 00:36:23;;;;;;;0.90;0.60;;;;;;;18.49;74.20;99289.66;688516;28;1025;-79
2023/08/01 00:36:44;;;;;;;0.90;0.60;;;;;;;18.52;74.41;99301.91;688912;28;1009;-78
2023/08/01 00:37:05;;;;;;;0.90;0.60;;;;;;;18.51;74.15;99300.19;687782;28;1106;-78
2023/08/01 00:37:25;;;;;;;0.90;0.60;;;;;;;18.53;74.24;99298.38;687612;28;1213;-79
2023/08/01 00:37:46;;;;;;;0.80;0.50;;;;;;;18.45;74.22;99292.44;684722;28;1099;-78
2023/08/01 00:38:07;;;;;;;0.80;0.50;;;;;;;18.43;74.25;99292.47;689964;28;1038;-78
2023/08/01 00:38:28;;;;;;;0.80;0.50;;;;;;;18.47;74.07;99293.25;686741;28;1192;-78
2023/08/01 00:38:49;;;;;;;0.90;0.50;;;;;;;18.47;74.27;99298.53;684407;28;1139;-77
2023/08/01 00:39:10;;;;;;;0.90;0.53;;;;;;;18.45;74.19;99289.78;679678;29;1268;-77
2023/08/01 00:39:30;;;;;;;0.90;0.60;;;;;;;18.54;74.25;99304.50;681829;28;1970;-78
2023/08/01 00:39:51;;;;;;;0.80;0.50;;;;;;;18.40;73.99;99286.41;683177;28;1631;-76
2023/08/01 00:40:12;;;;;;;0.80;0.50;;;;;;;18.40;74.14;99287.28;684909;28;1245;-76
2023/08/01 00:40:34;;;;;;;0.80;0.60;;;;;;;18.52;74.23;99306.31;684274;28;1440;-77
2023/08/01 00:40:54;;;;;;;0.90;0.60;;;;;;;18.47;74.34;99298.53;682240;29;1138;-76
2023/08/01 00:41:15;;;;;;;0.90;0.55;;;;;;;18.49;74.15;99302.88;683304;28;1080;-76
2023/08/01 00:41:36;;;;;;;0.82;0.50;;;;;;;18.47;74.18;99301.19;687447;28;1515;-77
2023/08/01 00:41:57;;;;;;;0.80;0.60;;;;;;;18.43;74.18;99291.63;687581;28;1051;-77
2023/08/01 00:42:17;;;;;;;0.80;0.60;;;;;;;18.44;73.98;99288.91;684886;28;1164;-76
2023/08/01 00:42:38;;;;;;;0.90;0.60;;;;;;;18.52;74.03;99291.34;679843;28;1058;-77
2023/08/01 00:42:59;;;;;;;0.90;0.60;;;;;;;18.44;74.13;99281.00;682889;28;1179;-76
2023/08/01 00:43:20;;;;;;;0.90;0.60;;;;;;;18.46;74.13;99284.47;684329;28;1402;-77
2023/08/01 00:43:41;;;;;;;0.90;0.60;;;;;;;18.48;74.35;99284.41;684917;28;1413;-76
2023/08/01 00:44:01;;;;;;;0.90;0.60;;;;;;;18.51;74.26;99284.34;682292;28;2001;-77
2023/08/01 00:44:22;;;;;;;0.90;0.60;;;;;;;18.54;74.15;99286.00;683085;28;1137;-76
2023/08/01 00:44:43;;;;;;;0.90;0.60;;;;;;;18.53;74.04;99285.16;679628;29;987;-77
2023/08/01 00:45:05;;;;;;;0.90;0.60;;;;;;;18.58;74.02;99285.91;677208;29;2049;-76
2023/08/01 00:45:30;;;;;;;0.90;0.60;;;;;;;18.51;74.15;99273.78;684080;28;1147;-76
2023/08/01 00:45:51;;;;;;;0.80;0.60;;;;;;;18.57;74.07;99291.22;684274;28;1039;-76
2023/08/01 00:46:12;;;;;;;0.90;0.60;;;;;;;18.54;73.73;99289.53;687384;28;1055;-76
2023/08/01 00:46:33;;;;;;;0.90;0.60;;;;;;;18.51;74.03;99279.06;686951;28;1936;-76
2023/08/01 00:46:54;;;;;;;0.90;0.50;;;;;;;18.55;74.01;99285.97;682191;28;1497;-76
2023/08/01 00:47:15;;;;;;;0.90;0.50;;;;;;;18.52;73.98;99286.06;682708;28;1686;-76
2023/08/01 00:47:35;;;;;;;0.90;0.50;;;;;;;18.53;74.02;99279.00;685264;28;1085;-76
2023/08/01 00:47:56;;;;;;;0.90;0.60;;;;;;;18.56;74.23;99286.84;682522;28;1226;-76
2023/08/01 00:48:18;;;;;;;0.90;0.60;;;;;;;18.51;73.88;99276.41;682587;28;1014;-76
2023/08/01 00:48:39;;;;;;;0.90;0.60;;;;;;;18.56;74.00;99286.84;683363;28;1069;-77
2023/08/01 00:49:00;;;;;;;0.90;0.57;;;;;;;18.50;73.90;99272.91;682670;29;1231;-76
2023/08/01 00:49:21;;;;;;;0.85;0.50;;;;;;;18.50;74.05;99277.31;684917;28;1350;-76
2023/08/01 00:49:42;;;;;;;0.80;0.50;;;;;;;18.54;73.98;99273.69;685352;28;1120;-76
2023/08/01 00:50:03;;;;;;;0.80;0.50;;;;;;;18.57;73.66;99283.28;680077;29;1127;-76
2023/08/01 00:50:24;;;;;;;0.90;0.52;;;;;;;18.54;73.95;99273.69;682056;29;1308;-76
2023/08/01 00:50:45;;;;;;;0.90;0.50;;;;;;;18.52;73.90;99272.88;682600;29;1176;-76
2023/08/01 00:51:09;;;;;;;0.90;0.50;;;;;;;18.60;73.74;99280.56;685862;28;1256;-76
2023/08/01 00:51:31;;;;;;;0.90;0.50;;;;;;;18.55;73.78;99270.13;685214;28;1874;-77
2023/08/01 00:51:52;;;;;;;0.90;0.60;;;;;;;18.51;73.78;99260.56;682843;29;1028;-76
2023/08/01 00:52:13;;;;;;;0.90;0.60;;;;;;;18.58;73.74;99280.63;684297;28;1684;-77
2023/08/01 00:52:34;;;;;;;0.90;0.60;;;;;;;18.54;73.87;99268.41;684469;28;1657;-76
2023/08/01 00:52:55;;;;;;;0.90;0.60;;;;;;;18.59;73.76;99274.41;682867;28;1036;-77
2023/08/01 00:53:17;;;;;;;0.90;0.60;;;;;;;18.58;73.83;99277.97;682656;28;1184;-76
2023/08/01 00:53:39;;;;;;;0.90;0.60;;;;;;;18.50;73.77;99278.19;685374;28;1148;-77
2023/08/01 00:54:00;;;;;;;0.85;0.57;;;;;;;18.53;73.86;99271.06;684885;28;1137;-76
2023/08/01 00:54:21;;;;;;;0.80;0.50;;;;;;;18.52;73.88;99266.72;685532;28;1192;-77
2023/08/01 00:54:42;;;;;;;0.90;0.53;;;;;;;18.58;73.57;99277.09;682461;28;1367;-76
2023/08/01 00:55:02;;;;;;;0.90;0.60;;;;;;;18.58;74.02;99280.63;677390;29;1200;-76
2023/08/01 00:55:23;;;;;;;0.90;0.50;;;;;;;18.54;73.79;99273.69;681739;28;1338;-76
2023/08/01 00:55:45;;;;;;;0.90;0.60;;;;;;;18.62;73.82;99287.53;685877;28;2068;-76
2023/08/01 00:56:06;;;;;;;0.90;0.60;;;;;;;18.58;73.91;99275.34;685695;28;1104;-76
2023/08/01 00:56:27;;;;;;;0.90;0.60;;;;;;;18.68;73.81;99280.34;690152;28;1530;-77
2023/08/01 00:56:47;;;;;;;0.82;0.60;;;;;;;18.63;73.82;99276.03;689302;28;1779;-76
2023/08/01 00:57:09;;;;;;;0.90;0.60;;;;;;;18.62;73.66;99271.69;683459;28;1018;-76
2023/08/01 00:57:30;;;;;;;0.90;0.60;;;;;;;18.59;73.71;99266.50;682199;28;1353;-76
2023/08/01 00:57:52;;;;;;;0.88;0.60;;;;;;;18.59;73.56;99269.13;683758;28;1161;-77
2023/08/01 00:58:13;;;;;;;0.80;0.60;;;;;;;18.62;73.71;99266.41;686196;28;1134;-77
2023/08/01 00:58:34;;;;;;;0.90;0.60;;;;;;;18.63;73.40;99273.41;688213;28;1375;-77
2023/08/01 00:58:55;;;;;;;0.90;0.60;;;;;;;18.60;73.61;99268.22;687723;28;1401;-77
2023/08/01 00:59:15;;;;;;;0.90;0.60;;;;;;;18.57;73.68;99268.28;685200;28;1552;-76
2023/08/01 00:59:36;;;;;;;0.90;0.60;;;;;;;18.64;73.74;99274.28;685359;28;1149;-76
2023/08/01 00:59:57;;;;;;;0.90;0.60;;;;;;;18.61;73.88;99275.25;687944;28;961;-76
2023/08/01 01:00:18;;;;;;;0.90;0.60;;;;;;;18.58;73.84;99272.69;685519;28;1091;-76
2023/08/01 01:00:39;;;;;;;0.90;0.60;;;;;;;18.58;73.64;99267.41;688069;28;1454;-77
2023/08/01 01:01:00;;;;;;;0.90;0.60;;;;;;;18.68;73.62;99278.56;687898;28;1421;-77
2023/08/01 01:01:20;;;;;;;0.80;0.60;;;;;;;18.63;73.70;99272.56;685378;28;1477;-76
2023/08/01 01:01:41;;;;;;;0.80;0.60;;;;;;;18.62;73.55;99266.41;682766;29;1081;-77
2023/08/01 01:02:02;;;;;;;0.80;0.60;;;;;;;18.72;73.77;99287.25;682682;28;1151;-76
2023/08/01 01:02:23;;;;;;;0.90;0.60;;;;;;;18.66;73.50;99277.75;682345;28;1885;-76
2023/08/01 01:02:44;;;;;;;0.90;0.60;;;;;;;18.68;73.52;99285.63;677738;28;1234;-76
2023/08/01 01:03:05;;;;;;;0.90;0.60;;;;;;;18.69;73.31;99282.06;681697;29;1812;-77
2023/08/01 01:03:26;;;;;;;0.80;0.60;;;;;;;18.64;73.56;99274.28;682693;29;1084;-77
2023/08/01 01:03:47;;;;;;;0.80;0.60;;;;;;;18.61;73.51;99269.94;687850;28;1199;-77
2023/08/01 01:04:08;;;;;;;0.80;0.50;;;;;;;18.64;73.71;99279.56;685591;28;1208;-76
2023/08/01 01:04:29;;;;;;;0.80;0.50;;;;;;;18.67;73.60;99278.63;687677;28;1250;-76
2023/08/01 01:04:50;;;;;;;0.80;0.50;;;;;;;18.63;73.52;99272.56;682695;29;943;-76
2023/08/01 01:05:11;;;;;;;0.90;0.60;;;;;;;18.62;73.67;99270.78;682792;28;1037;-77
2023/08/01 01:05:38;;;;;;;0.90;0.60;;;;;;;18.68;73.58;99273.25;681385;29;1727;-76
2023/08/01 01:06:32;;;;;;;0.80;0.60;;;;;;;18.70;73.56;99273.22;685480;28;1093;-76
2023/08/01 01:07:06;;;;;;;0.80;0.60;;;;;;;18.69;73.63;99266.22;683506;28;1253;-76
2023/08/01 01:07:28;;;;;;;0.80;0.60;;;;;;;18.75;73.30;99277.47;687743;28;1214;-77
2023/08/01 01:07:50;;;;;;;0.80;0.60;;;;;;;18.75;73.32;99279.25;684834;28;1632;-76
2023/08/01 01:08:10;;;;;;;0.90;0.60;;;;;;;18.64;73.63;99263.72;677612;28;1246;-76
2023/08/01 01:08:31;;;;;;;0.82;0.52;;;;;;;18.62;73.52;99266.41;685176;28;1358;-76
2023/08/01 01:08:53;;;;;;;0.90;0.52;;;;;;;18.62;73.46;99261.09;686500;28;1077;-77
2023/08/01 01:09:16;;;;;;;0.90;0.60;;;;;;;18.67;73.50;99268.91;685218;28;1341;-77
2023/08/01 01:09:36;;;;;;;0.90;0.60;;;;;;;18.64;73.37;99264.56;687750;28;1677;-77
2023/08/01 01:10:00;;;;;;;0.90;0.60;;;;;;;18.64;73.33;99258.44;682161;28;1806;-77
2023/08/01 01:10:21;;;;;;;0.90;0.60;;;;;;;18.63;73.59;99254.91;677726;29;1253;-77
2023/08/01 01:10:41;;;;;;;0.90;0.60;;;;;;;18.65;73.56;99260.16;677437;29;1029;-77
2023/08/01 01:11:04;;;;;;;0.90;0.60;;;;;;;18.64;73.39;99259.28;685167;28;1198;-77
2023/08/01 01:11:24;;;;;;;0.90;0.60;;;;;;;18.64;73.48;99254.00;683183;28;1113;-77
2023/08/01 01:11:46;;;;;;;0.85;0.55;;;;;;;18.68;73.51;99248.63;679877;29;1229;-76
2023/08/01 01:12:07;;;;;;;0.80;0.50;;;;;;;18.70;73.38;99252.97;679875;29;1868;-76
2023/08/01 01:12:28;;;;;;;0.80;0.50;;;;;;;18.71;73.33;99259.97;682174;29;1160;-77
2023/08/01 01:12:50;;;;;;;0.80;0.57;;;;;;;18.73;73.37;99260.78;678744;29;2029;-76
2023/08/01 01:13:10;;;;;;;0.90;0.50;;;;;;;18.73;73.22;99254.63;685561;28;1108;-76
2023/08/01 01:13:31;;;;;;;0.90;0.50;;;;;;;18.72;73.52;99255.53;693408;28;1554;-77
2023/08/01 01:13:53;;;;;;;0.90;0.50;;;;;;;18.72;73.26;99255.53;687814;28;1303;-76
2023/08/01 01:14:14;;;;;;;0.90;0.60;;;;;;;18.79;73.21;99264.19;687382;28;1092;-77
2023/08/01 01:14:36;;;;;;;0.90;0.60;;;;;;;18.67;73.30;99249.56;688163;28;1090;-77
2023/08/01 01:14:56;;;;;;;0.90;0.60;;;;;;;18.67;73.24;99247.75;685366;28;1182;-78
2023/08/01 01:15:17;;;;;;;0.90;0.60;;;;;;;18.69;73.37;99258.28;680812;29;1069;-77
2023/08/01 01:15:38;;;;;;;0.90;0.60;;;;;;;18.75;73.27;99252.84;687308;28;1075;-78
2023/08/01 01:15:59;;;;;;;0.90;0.60;;;;;;;18.68;73.39;99253.94;688044;28;996;-77
2023/08/01 01:16:20;;;;;;;0.90;0.60;;;;;;;18.71;73.37;99253.81;690584;28;1188;-77
2023/08/01 01:16:40;;;;;;;0.88;0.60;;;;;;;18.67;73.17;99249.56;687697;28;958;-77
2023/08/01 01:17:01;;;;;;;0.80;0.60;;;;;;;18.66;73.36;99246.03;686750;28;1132;-76
2023/08/01 01:17:22;;;;;;;0.90;0.60;;;;;;;18.72;73.28;99256.44;687020;28;1111;-77
2023/08/01 01:17:43;;;;;;;0.90;0.50;;;;;;;18.72;73.42;99250.25;679786;29;1063;-77
2023/08/01 01:18:04;;;;;;;0.90;0.50;;;;;;;18.65;73.36;99244.31;685340;28;1194;-77
2023/08/01 01:18:24;;;;;;;0.90;0.60;;;;;;;18.69;73.37;99259.13;684511;28;1212;-77
2023/08/01 01:18:45;;;;;;;0.90;0.60;;;;;;;18.68;73.38;99256.56;684946;28;1256;-77
2023/08/01 01:19:09;;;;;;;0.90;0.60;;;;;;;18.69;73.44;99255.66;682938;28;1335;-77
2023/08/01 01:19:30;;;;;;;0.90;0.55;;;;;;;18.62;73.29;99254.94;682476;29;1098;-76
2023/08/01 01:19:51;;;;;;;0.80;0.50;;;;;;;18.62;73.42;99255.81;682364;29;1061;-78
2023/08/01 01:20:11;;;;;;;0.90;0.60;;;;;;;18.63;73.43;99259.34;683893;28;1242;-76
2023/08/01 01:20:36;;;;;;;0.90;0.60;;;;;;;18.70;73.70;99268.81;685289;28;1107;-75
2023/08/01 01:20:56;;;;;;;0.90;0.60;;;;;;;18.58;73.41;99248.03;688215;28;1041;-77
2023/08/01 01:21:17;;;;;;;0.90;0.60;;;;;;;18.59;73.63;99253.28;685755;28;1196;-77
2023/08/01 01:21:40;;;;;;;0.90;0.60;;;;;;;18.57;73.75;99251.59;685664;28;1019;-77
2023/08/01 01:22:03;;;;;;;0.90;0.60;;;;;;;18.58;73.68;99254.19;685534;28;1871;-77
2023/08/01 01:22:25;;;;;;;0.90;0.52;;;;;;;18.57;73.48;99257.72;685545;28;1096;-76
2023/08/01 01:22:46;;;;;;;0.90;0.60;;;;;;;18.60;73.53;99268.22;690675;28;1419;-76
2023/08/01 01:23:09;;;;;;;0.80;0.50;;;;;;;18.58;73.86;99259.50;688468;28;1358;-77
2023/08/01 01:23:30;;;;;;;0.80;0.60;;;;;;;18.51;73.70;99257.94;688393;28;1227;-77
2023/08/01 01:23:52;;;;;;;0.90;0.70;;;;;;;18.48;73.65;99242.16;685415;28;1808;-76
2023/08/01 01:24:14;;;;;;;0.90;0.70;;;;;;;18.51;73.86;99247.38;685731;28;1045;-77
2023/08/01 01:24:36;;;;;;;0.90;0.68;;;;;;;18.56;74.05;99244.59;680212;29;1787;-77
2023/08/01 01:24:58;;;;;;;0.90;0.60;;;;;;;18.57;73.72;99248.97;683813;28;1080;-76
2023/08/01 01:25:21;;;;;;;0.90;0.60;;;;;;;18.58;74.03;99243.63;682766;29;1702;-77
2023/08/01 01:25:42;;;;;;;0.90;0.60;;;;;;;18.54;73.64;99241.97;682522;29;926;-76
2023/08/01 01:26:04;;;;;;;0.90;0.60;;;;;;;18.66;73.88;99258.38;682699;28;1303;-77
2023/08/01 01:26:25;;;;;;;0.90;0.60;;;;;;;18.67;73.83;99257.47;682840;28;1251;-77
2023/08/01 01:26:48;;;;;;;0.90;0.60;;;;;;;18.55;73.86;99241.06;685446;28;1916;-76
2023/08/01 01:27:09;;;;;;;0.90;0.60;;;;;;;18.58;73.70;99242.75;680256;28;1724;-78
2023/08/01 01:27:30;;;;;;;0.90;0.70;;;;;;;18.64;73.65;99254.00;688140;28;1109;-77
2023/08/01 01:27:53;;;;;;;0.90;0.70;;;;;;;18.59;73.60;99233.91;688252;28;1079;-78
2023/08/01 01:28:15;;;;;;;0.90;0.70;;;;;;;18.64;73.34;99250.50;687880;28;2000;-78
2023/08/01 01:28:37;;;;;;;0.80;0.50;;;;;;;18.55;73.63;99238.44;685238;28;1477;-78
2023/08/01 01:28:58;;;;;;;0.90;0.60;;;;;;;18.57;73.76;99241.88;689347;28;1088;-77
2023/08/01 01:29:20;;;;;;;0.90;0.60;;;;;;;18.54;73.45;99231.41;686942;28;1080;-78
2023/08/01 01:29:43;;;;;;;0.80;0.60;;;;;;;18.48;73.59;99221.91;686010;28;1551;-77
2023/08/01 01:30:07;;;;;;;0.80;0.60;;;;;;;18.58;73.67;99248.03;688160;28;1236;-78
2023/08/01 01:30:29;;;;;;;0.80;0.60;;;;;;;18.55;73.81;99243.72;685235;28;1393;-77
2023/08/01 01:30:52;;;;;;;0.90;0.60;;;;;;;18.61;73.65;99253.22;677684;29;1073;-77
2023/08/01 01:31:15;;;;;;;0.90;0.60;;;;;;;18.57;73.79;99235.75;682040;29;1124;-78
2023/08/01 01:31:36;;;;;;;0.90;0.60;;;;;;;18.54;73.76;99241.97;686882;28;2035;-78
2023/08/01 01:31:59;;;;;;;0.90;0.60;;;;;;;18.54;73.85;99241.09;688089;28;957;-77
2023/08/01 01:32:21;;;;;;;0.80;0.60;;;;;;;18.49;74.05;99235.97;681187;28;1121;-78
2023/08/01 01:32:41;;;;;;;0.80;0.50;;;;;;;18.58;73.90;99248.91;685225;28;1315;-78
2023/08/01 01:33:03;;;;;;;0.90;0.50;;;;;;;18.52;73.98;99233.25;682547;28;1343;-77
2023/08/01 01:33:24;;;;;;;0.90;0.50;;;;;;;18.49;73.74;99230.69;687962;28;1361;-77
2023/08/01 01:33:45;;;;;;;0.80;0.50;;;;;;;18.56;74.03;99241.94;687427;28;1472;-77
2023/08/01 01:34:07;;;;;;;0.80;0.50;;;;;;;18.48;73.89;99223.66;685561;28;1135;-77
2023/08/01 01:34:28;;;;;;;0.80;0.60;;;;;;;18.49;73.91;99228.03;682363;29;1168;-77
2023/08/01 01:34:49;;;;;;;0.90;0.60;;;;;;;18.54;73.93;99230.53;677221;29;1497;-77
2023/08/01 01:35:09;;;;;;;0.90;0.60;;;;;;;18.60;73.98;99241.81;680151;28;1136;-78
2023/08/01 01:35:34;;;;;;;0.90;0.60;;;;;;;18.54;73.96;99231.41;679951;29;1097;-77
2023/08/01 01:35:56;;;;;;;0.90;0.60;;;;;;;18.46;73.89;99218.47;680000;29;1391;-77
2023/08/01 01:36:17;;;;;;;0.90;0.60;;;;;;;18.54;73.92;99230.53;687807;28;1292;-77
2023/08/01 01:36:38;;;;;;;0.83;0.60;;;;;;;18.60;73.83;99235.66;687979;28;1006;-77
2023/08/01 01:37:00;;;;;;;0.80;0.50;;;;;;;18.52;73.87;99232.38;682904;29;1037;-77
2023/08/01 01:37:21;;;;;;;0.80;0.60;;;;;;;18.53;73.81;99221.75;684705;28;1407;-76
2023/08/01 01:37:41;;;;;;;0.80;0.50;;;;;;;18.55;73.86;99227.00;685454;28;1090;-77
2023/08/01 01:38:05;;;;;;;0.80;0.60;;;;;;;18.53;73.88;99221.75;682614;28;1203;-77
2023/08/01 01:38:26;;;;;;;0.80;0.60;;;;;;;18.54;73.73;99223.50;676973;29;1673;-77
2023/08/01 01:38:47;;;;;;;0.80;0.50;;;;;;;18.57;73.80;99225.19;679923;29;1081;-77
2023/08/01 01:39:08;;;;;;;0.88;0.50;;;;;;;18.55;73.82;99225.22;680260;29;990;-77
2023/08/01 01:39:29;;;;;;;0.80;0.50;;;;;;;18.56;73.56;99228.75;684814;28;1561;-77
2023/08/01 01:39:50;;;;;;;0.80;0.50;;;;;;;18.58;73.81;99233.06;685209;28;1063;-77
2023/08/01 01:40:11;;;;;;;0.82;0.52;;;;;;;18.55;73.94;99227.88;688035;28;1154;-76
2023/08/01 01:40:32;;;;;;;0.90;0.60;;;;;;;18.63;73.85;99235.56;687359;28;1660;-77
2023/08/01 01:40:53;;;;;;;0.90;0.50;;;;;;;18.58;73.58;99226.91;685568;28;1058;-77
2023/08/01 01:41:14;;;;;;;0.90;0.50;;;;;;;18.63;73.58;99235.56;686043;28;1533;-77
2023/08/01 01:41:35;;;;;;;0.90;0.50;;;;;;;18.58;73.56;99218.97;684344;28;1832;-77
2023/08/01 01:41:55;;;;;;;0.90;0.60;;;;;;;18.62;73.74;99234.69;688277;28;1145;-78
2023/08/01 01:42:16;;;;;;;0.90;0.60;;;;;;;18.52;73.68;99217.41;685206;28;1151;-78
2023/08/01 01:42:37;;;;;;;0.90;0.60;;;;;;;18.62;73.87;99234.69;680303;29;2040;-76
2023/08/01 01:42:58;;;;;;;0.90;0.60;;;;;;;18.55;73.96;99222.56;683097;28;1829;-77